createdAt,value
2019-05-29T00:01:18.558Z,8.43
2019-05-29T00:03:45.530Z,10.45
2019-05-29T00:06:16.807Z,12.25
2019-05-29T00:08:46.607Z,13.13
2019-05-29T00:11:16.350Z,10.72
2019-05-29T00:13:46.239Z,12.05
2019-05-29T00:16:15.952Z,12.60
2019-05-29T00:18:45.719Z,11.63
2019-05-29T00:21:15.366Z,12.53
2019-05-29T00:23:45.038Z,13.05
2019-05-29T00:26:14.668Z,11.90
2019-05-29T00:28:44.437Z,11.95
2019-05-29T00:31:14.091Z,12.60
2019-05-29T00:33:44.783Z,12.03
2019-05-29T00:36:14.667Z,13.08
2019-05-29T00:38:44.435Z,13.60
2019-05-29T00:41:15.079Z,13.80
2019-05-29T00:43:45.595Z,16.45
2019-05-29T00:46:15.608Z,15.60
2019-05-29T00:48:45.263Z,14.65
2019-05-29T00:51:15.193Z,16.93
2019-05-29T00:53:45.011Z,18.45
2019-05-29T00:56:14.740Z,18.70
2019-05-29T00:58:44.595Z,20.70
2019-05-29T01:01:15.465Z,19.75
2019-05-29T01:03:45.331Z,17.85
2019-05-29T01:06:15.999Z,19.90
2019-05-29T01:08:45.925Z,19.05
2019-05-29T01:11:16.811Z,19.37
2019-05-29T01:13:46.641Z,20.68
2019-05-29T01:16:17.481Z,19.37
2019-05-29T01:18:47.511Z,22.62
2019-05-29T01:21:17.988Z,22.00
2019-05-29T01:23:49.692Z,21.02
2019-05-29T01:26:19.363Z,24.40
2019-05-29T01:28:49.384Z,20.35
2019-05-29T01:31:19.358Z,23.45
2019-05-29T01:33:49.027Z,19.65
2019-05-29T01:36:20.018Z,22.17
2019-05-29T01:38:49.879Z,20.55
2019-05-29T01:41:19.480Z,23.70
2019-05-29T01:43:49.179Z,23.67
2019-05-29T01:46:19.760Z,22.93
2019-05-29T01:48:49.409Z,22.58
2019-05-29T01:51:19.545Z,26.15
2019-05-29T01:53:49.215Z,24.18
2019-05-29T01:56:21.707Z,23.65
2019-05-29T01:58:50.341Z,23.45
2019-05-29T02:01:20.070Z,24.72
2019-05-29T02:03:50.036Z,25.65
2019-05-29T02:06:20.036Z,23.75
2019-05-29T02:08:49.856Z,24.12
2019-05-29T02:11:19.701Z,21.55
2019-05-29T02:13:49.369Z,23.73
2019-05-29T02:16:20.584Z,24.07
2019-05-29T02:18:50.425Z,24.65
2019-05-29T02:21:20.226Z,23.45
2019-05-29T02:23:50.044Z,23.45
2019-05-29T02:26:20.575Z,22.80
2019-05-29T02:28:50.363Z,23.45
2019-05-29T02:31:21.950Z,24.70
2019-05-29T02:33:51.551Z,21.82
2019-05-29T02:36:22.353Z,24.60
2019-05-29T02:38:52.117Z,21.57
2019-05-29T02:41:24.106Z,24.80
2019-05-29T02:43:53.479Z,21.95
2019-05-29T02:46:23.935Z,25.72
2019-05-29T02:48:54.516Z,27.58
2019-05-29T02:51:24.829Z,22.87
2019-05-29T02:53:55.934Z,23.45
2019-05-29T02:56:27.029Z,26.15
2019-05-29T02:58:57.061Z,27.70
2019-05-29T03:01:27.792Z,23.77
2019-05-29T03:03:58.619Z,27.07
2019-05-29T03:06:30.149Z,25.82
2019-05-29T03:09:00.717Z,27.87
2019-05-29T03:11:31.204Z,29.30
2019-05-29T03:14:03.873Z,28.95
2019-05-29T03:16:34.857Z,29.63
2019-05-29T03:19:05.441Z,30.40
2019-05-29T03:21:36.108Z,29.90
2019-05-29T03:24:06.622Z,28.77
2019-05-29T03:26:38.407Z,30.48
2019-05-29T03:29:09.007Z,31.07
2019-05-29T03:31:46.495Z,33.67
2019-05-29T03:34:12.527Z,32.60
2019-05-29T03:36:47.852Z,34.73
2019-05-29T03:39:15.657Z,35.60
2019-05-29T03:41:46.365Z,35.05
2019-05-29T03:44:17.219Z,33.78
2019-05-29T03:46:47.946Z,34.65
2019-05-29T03:49:18.554Z,33.60
2019-05-29T03:51:49.092Z,32.95
2019-05-29T03:54:21.275Z,30.68
2019-05-29T03:56:51.450Z,29.42
2019-05-29T03:59:21.969Z,31.10
2019-05-29T04:01:52.562Z,29.65
2019-05-29T04:04:22.930Z,32.65
2019-05-29T04:06:53.503Z,30.10
2019-05-29T04:09:24.272Z,28.75
2019-05-29T04:11:54.779Z,29.52
2019-05-29T04:14:27.595Z,34.08
2019-05-29T04:17:01.027Z,31.40
2019-05-29T04:19:32.635Z,29.52
2019-05-29T04:22:13.602Z,30.57
2019-05-29T04:24:45.703Z,30.32
2019-05-29T04:27:21.351Z,28.17
2019-05-29T04:29:53.430Z,30.45
2019-05-29T04:32:23.633Z,29.72
2019-05-29T04:34:54.448Z,31.80
2019-05-29T04:37:25.044Z,31.65
2019-05-29T04:39:55.584Z,30.40
2019-05-29T04:42:26.187Z,29.80
2019-05-29T04:44:56.733Z,32.88
2019-05-29T04:47:28.801Z,33.08
2019-05-29T04:49:59.585Z,31.45
2019-05-29T04:52:31.359Z,29.92
2019-05-29T04:55:01.971Z,28.65
2019-05-29T04:57:32.833Z,31.15
2019-05-29T05:00:03.505Z,32.73
2019-05-29T05:02:35.062Z,30.70
2019-05-29T05:05:07.373Z,31.35
2019-05-29T05:07:38.046Z,32.00
2019-05-29T05:10:09.495Z,28.60
2019-05-29T05:12:40.658Z,31.80
2019-05-29T05:15:11.366Z,35.45
2019-05-29T05:17:41.683Z,37.60
2019-05-29T05:20:12.174Z,35.55
2019-05-29T05:22:42.840Z,41.90
2019-05-29T05:25:13.424Z,37.20
2019-05-29T05:27:43.921Z,38.23
2019-05-29T05:30:14.494Z,39.18
2019-05-29T05:32:48.167Z,40.80
2019-05-29T05:35:19.075Z,39.65
2019-05-29T05:37:49.511Z,43.28
2019-05-29T05:40:20.186Z,40.48
2019-05-29T05:42:50.695Z,46.37
2019-05-29T05:45:21.331Z,45.25
2019-05-29T05:47:57.420Z,39.75
2019-05-29T05:50:24.616Z,38.92
2019-05-29T05:52:55.055Z,42.58
2019-05-29T05:55:25.450Z,37.53
2019-05-29T05:57:55.911Z,39.98
2019-05-29T06:00:35.803Z,40.43
2019-05-29T06:03:07.155Z,42.40
2019-05-29T06:05:38.284Z,39.05
2019-05-29T06:08:08.992Z,40.08
2019-05-29T06:10:40.247Z,37.17
2019-05-29T06:13:11.170Z,33.67
2019-05-29T06:15:42.955Z,38.35
2019-05-29T06:18:21.154Z,36.85
2019-05-29T06:20:45.934Z,37.83
2019-05-29T06:23:16.453Z,33.05
2019-05-29T06:25:47.014Z,34.85
2019-05-29T06:28:17.717Z,33.33
2019-05-29T06:30:48.178Z,33.05
2019-05-29T06:33:18.807Z,33.88
2019-05-29T06:35:49.361Z,30.90
2019-05-29T06:38:20.301Z,33.88
2019-05-29T06:40:50.684Z,28.77
2019-05-29T06:43:25.868Z,30.52
2019-05-29T06:45:57.564Z,35.30
2019-05-29T06:48:46.244Z,27.30
2019-05-29T06:51:05.393Z,29.67
2019-05-29T06:53:35.800Z,22.67
2019-05-29T06:56:06.399Z,21.77
2019-05-29T06:58:38.084Z,22.37
2019-05-29T07:01:08.978Z,24.60
2019-05-29T07:03:41.757Z,31.40
2019-05-29T07:06:12.354Z,25.50
2019-05-29T07:08:46.457Z,19.65
2019-05-29T07:11:16.476Z,22.77
2019-05-29T07:13:50.121Z,24.02
2019-05-29T07:16:19.656Z,22.45
2019-05-29T07:19:23.985Z,24.98
2019-05-29T07:21:22.164Z,23.87
2019-05-29T07:23:52.927Z,23.60
2019-05-29T07:26:23.361Z,25.70
2019-05-29T07:29:06.579Z,23.07
2019-05-29T07:31:26.202Z,23.77
2019-05-29T07:33:56.824Z,32.30
2019-05-29T07:36:27.316Z,26.00
2019-05-29T07:39:03.710Z,26.80
2019-05-29T07:41:30.060Z,26.27
2019-05-29T07:44:00.641Z,26.90
2019-05-29T07:46:30.841Z,36.55
2019-05-29T07:49:00.927Z,27.50
2019-05-29T07:51:31.259Z,25.48
2019-05-29T07:54:01.578Z,26.30
2019-05-29T07:56:32.038Z,23.73
2019-05-29T07:59:03.634Z,24.75
2019-05-29T08:01:34.082Z,23.77
2019-05-29T08:04:04.275Z,26.35
2019-05-29T08:06:34.596Z,24.27
2019-05-29T08:09:06.222Z,24.23
2019-05-29T08:11:36.264Z,25.23
2019-05-29T08:14:06.500Z,21.87
2019-05-29T08:16:36.807Z,26.23
2019-05-29T08:19:08.098Z,22.55
2019-05-29T08:21:38.488Z,25.27
2019-05-29T08:24:08.815Z,20.77
2019-05-29T08:26:40.653Z,24.20
2019-05-29T08:29:11.133Z,23.10
2019-05-29T08:31:42.662Z,21.60
2019-05-29T08:34:13.067Z,20.77
2019-05-29T08:36:59.986Z,21.42
2019-05-29T08:39:33.456Z,21.07
2019-05-29T08:42:20.639Z,21.27
2019-05-29T08:44:20.360Z,21.20
2019-05-29T08:47:06.341Z,19.23
2019-05-29T08:49:22.497Z,18.67
2019-05-29T08:52:10.202Z,16.20
2019-05-29T08:54:24.603Z,16.45
2019-05-29T08:56:55.037Z,16.93
2019-05-29T08:59:25.265Z,18.05
2019-05-29T09:01:55.702Z,15.90
2019-05-29T09:04:26.181Z,15.35
2019-05-29T09:06:56.489Z,15.60
2019-05-29T09:09:26.845Z,11.63
2019-05-29T09:11:57.226Z,10.20
2019-05-29T09:14:27.454Z,9.70
2019-05-29T09:16:58.039Z,10.32
2019-05-29T09:19:28.232Z,10.25
2019-05-29T09:21:58.835Z,10.43
2019-05-29T09:24:29.099Z,9.03
2019-05-29T09:26:59.648Z,9.95
2019-05-29T09:29:29.873Z,20.95
2019-05-29T09:32:00.231Z,28.25
2019-05-29T09:34:30.649Z,21.48
2019-05-29T09:37:00.889Z,15.30
2019-05-29T09:39:30.980Z,13.00
2019-05-29T09:42:01.255Z,11.25
2019-05-29T09:44:38.809Z,12.35
2019-05-29T09:47:03.605Z,13.05
2019-05-29T09:49:34.026Z,12.13
2019-05-29T09:52:04.319Z,11.88
2019-05-29T09:54:34.890Z,12.68
2019-05-29T09:57:05.410Z,11.22
2019-05-29T09:59:35.611Z,10.90
2019-05-29T10:02:08.956Z,11.88
2019-05-29T10:04:37.627Z,14.30
2019-05-29T10:07:08.092Z,18.77
2019-05-29T10:09:38.369Z,14.43
2019-05-29T10:12:08.847Z,10.88
2019-05-29T10:14:38.864Z,12.33
2019-05-29T10:17:12.736Z,10.93
2019-05-29T10:19:40.976Z,9.90
2019-05-29T10:22:11.117Z,8.50
2019-05-29T10:24:41.571Z,12.33
2019-05-29T10:27:11.785Z,8.90
2019-05-29T10:29:42.474Z,11.25
2019-05-29T10:32:12.847Z,8.85
2019-05-29T10:34:44.234Z,8.23
2019-05-29T10:37:17.945Z,9.80
2019-05-29T10:39:47.195Z,9.93
2019-05-29T10:42:20.535Z,9.35
2019-05-29T10:44:51.154Z,9.08
2019-05-29T10:47:21.592Z,9.03
2019-05-29T10:49:51.853Z,9.48
2019-05-29T10:52:22.040Z,8.90
2019-05-29T10:54:52.521Z,9.25
2019-05-29T10:57:22.688Z,9.93
2019-05-29T10:59:53.005Z,9.33
2019-05-29T11:02:23.134Z,7.08
2019-05-29T11:04:56.457Z,6.47
2019-05-29T11:07:25.290Z,7.08
2019-05-29T11:09:56.225Z,7.85
2019-05-29T11:12:26.800Z,7.85
2019-05-29T11:14:57.067Z,9.80
2019-05-29T11:17:27.504Z,6.37
2019-05-29T11:19:58.321Z,7.17
2019-05-29T11:22:28.716Z,6.33
2019-05-29T11:25:18.834Z,7.65
2019-05-29T11:27:30.684Z,6.28
2019-05-29T11:30:00.922Z,7.17
2019-05-29T11:32:31.214Z,5.67
2019-05-29T11:35:02.247Z,6.08
2019-05-29T11:37:32.661Z,9.50
2019-05-29T11:40:03.335Z,5.55
2019-05-29T11:42:33.645Z,5.00
2019-05-29T11:45:05.400Z,7.72
2019-05-29T11:47:35.719Z,6.35
2019-05-29T11:50:19.673Z,7.53
2019-05-29T11:52:45.897Z,7.80
2019-05-29T11:55:16.626Z,10.32
2019-05-29T11:57:47.033Z,6.25
2019-05-29T12:00:20.729Z,5.45
2019-05-29T12:02:51.278Z,6.55
2019-05-29T12:05:22.064Z,7.62
2019-05-29T12:07:53.495Z,5.35
2019-05-29T12:10:24.128Z,5.90
2019-05-29T12:12:55.429Z,4.78
2019-05-29T12:15:25.840Z,4.22
2019-05-29T12:18:18.490Z,3.62
2019-05-29T12:20:29.113Z,4.87
2019-05-29T12:23:18.605Z,4.35
2019-05-29T12:25:31.450Z,4.83
2019-05-29T12:28:03.238Z,3.83
2019-05-29T12:30:34.248Z,4.20
2019-05-29T12:33:04.756Z,4.78
2019-05-29T12:35:35.105Z,5.72
2019-05-29T12:38:05.609Z,7.25
2019-05-29T12:40:35.971Z,4.30
2019-05-29T12:43:06.800Z,6.80
2019-05-29T12:45:37.234Z,5.58
2019-05-29T12:48:13.288Z,7.22
2019-05-29T12:50:39.474Z,5.83
2019-05-29T12:53:09.797Z,4.40
2019-05-29T12:55:40.609Z,5.58
2019-05-29T12:58:10.982Z,5.00
2019-05-29T13:00:41.580Z,4.50
2019-05-29T13:03:11.743Z,4.83
2019-05-29T13:05:43.751Z,5.67
2019-05-29T13:08:14.225Z,4.47
2019-05-29T13:10:44.698Z,3.80
2019-05-29T13:13:15.288Z,3.37
2019-05-29T13:15:46.077Z,3.65
2019-05-29T13:18:16.586Z,3.00
2019-05-29T13:20:47.093Z,3.12
2019-05-29T13:23:17.445Z,3.77
2019-05-29T13:25:47.962Z,3.75
2019-05-29T13:28:18.069Z,4.03
2019-05-29T13:30:48.492Z,5.55
2019-05-29T13:33:18.604Z,5.15
2019-05-29T13:35:48.644Z,3.65
2019-05-29T13:38:19.042Z,5.20
2019-05-29T13:40:49.307Z,3.58
2019-05-29T13:43:19.868Z,5.28
2019-05-29T13:45:50.545Z,4.45
2019-05-29T13:48:23.386Z,3.70
2019-05-29T13:50:52.871Z,3.90
2019-05-29T13:53:23.511Z,3.87
2019-05-29T13:55:53.819Z,3.58
2019-05-29T13:58:24.017Z,3.30
2019-05-29T14:00:55.412Z,3.00
2019-05-29T14:03:25.749Z,3.77
2019-05-29T14:05:56.031Z,6.30
2019-05-29T14:08:26.134Z,3.10
2019-05-29T14:10:56.485Z,2.75
2019-05-29T14:13:26.971Z,4.25
2019-05-29T14:15:57.428Z,3.45
2019-05-29T14:18:27.974Z,2.65
2019-05-29T14:20:58.381Z,2.08
2019-05-29T14:23:28.929Z,2.55
2019-05-29T14:26:00.411Z,4.30
2019-05-29T14:28:30.776Z,2.95
2019-05-29T14:31:01.980Z,2.75
2019-05-29T14:33:32.474Z,4.10
2019-05-29T14:36:03.429Z,4.55
2019-05-29T14:38:34.363Z,5.10
2019-05-29T14:41:05.700Z,3.10
2019-05-29T14:43:36.660Z,4.22
2019-05-29T14:46:08.117Z,3.87
2019-05-29T14:48:38.852Z,2.10
2019-05-29T14:51:08.994Z,2.33
2019-05-29T14:53:39.162Z,2.50
2019-05-29T14:56:10.592Z,2.02
2019-05-29T14:58:41.243Z,1.52
2019-05-29T15:01:11.566Z,2.15
2019-05-29T15:03:41.734Z,2.90
2019-05-29T15:06:11.797Z,2.85
2019-05-29T15:08:42.497Z,3.17
2019-05-29T15:11:14.097Z,2.45
2019-05-29T15:13:45.122Z,4.12
2019-05-29T15:16:15.547Z,2.15
2019-05-29T15:18:46.195Z,2.45
2019-05-29T15:21:16.939Z,5.47
2019-05-29T15:23:47.143Z,3.75
2019-05-29T15:26:17.227Z,2.83
2019-05-29T15:28:47.762Z,3.58
2019-05-29T15:31:18.525Z,3.12
2019-05-29T15:33:49.000Z,2.87
2019-05-29T15:36:19.504Z,3.27
2019-05-29T15:38:49.763Z,4.70
2019-05-29T15:41:20.190Z,2.75
2019-05-29T15:43:50.765Z,2.05
2019-05-29T15:46:21.035Z,2.08
2019-05-29T15:48:51.989Z,1.82
2019-05-29T15:51:22.714Z,3.70
2019-05-29T15:53:53.336Z,2.60
2019-05-29T15:56:27.897Z,1.82
2019-05-29T15:58:56.167Z,5.15
2019-05-29T16:01:26.523Z,2.70
2019-05-29T16:03:57.450Z,3.62
2019-05-29T16:06:27.893Z,4.60
2019-05-29T16:08:58.511Z,4.40
2019-05-29T16:11:28.933Z,3.05
2019-05-29T16:13:59.695Z,3.12
2019-05-29T16:16:30.242Z,6.78
2019-05-29T16:19:00.664Z,2.67
2019-05-29T16:21:30.975Z,3.72
2019-05-29T16:24:01.269Z,2.62
2019-05-29T16:26:31.919Z,4.28
2019-05-29T16:29:04.106Z,3.25
2019-05-29T16:31:34.665Z,2.83
2019-05-29T16:34:04.995Z,2.85
2019-05-29T16:36:35.609Z,4.12
2019-05-29T16:39:08.855Z,3.45
2019-05-29T16:41:39.811Z,2.85
2019-05-29T16:44:11.921Z,3.85
2019-05-29T16:46:42.395Z,4.00
2019-05-29T16:49:12.756Z,4.45
2019-05-29T16:51:42.975Z,2.45
2019-05-29T16:54:13.263Z,3.75
2019-05-29T16:56:44.196Z,2.67
2019-05-29T16:59:14.910Z,3.25
2019-05-29T17:01:45.199Z,3.02
2019-05-29T17:04:15.929Z,3.05
2019-05-29T17:06:46.689Z,4.40
2019-05-29T17:09:18.276Z,2.55
2019-05-29T17:11:48.691Z,2.72
2019-05-29T17:14:19.154Z,3.27
2019-05-29T17:16:49.791Z,3.42
2019-05-29T17:19:20.735Z,2.75
2019-05-29T17:21:52.692Z,3.37
2019-05-29T17:24:23.428Z,3.27
2019-05-29T17:26:55.009Z,4.67
2019-05-29T17:29:25.856Z,3.92
2019-05-29T17:31:56.571Z,3.40
2019-05-29T17:34:27.248Z,3.58
2019-05-29T17:36:59.568Z,6.05
2019-05-29T17:39:50.389Z,4.28
2019-05-29T17:42:22.448Z,4.92
2019-05-29T17:44:52.672Z,5.50
2019-05-29T17:47:23.641Z,7.75
2019-05-29T17:49:53.937Z,4.83
2019-05-29T17:52:24.041Z,4.97
2019-05-29T17:54:54.671Z,5.87
2019-05-29T17:57:25.979Z,6.00
2019-05-29T17:59:56.716Z,5.72
2019-05-29T18:02:27.187Z,6.35
2019-05-29T18:04:57.923Z,5.00
2019-05-29T18:07:28.140Z,7.12
2019-05-29T18:09:59.215Z,4.97
2019-05-29T18:12:30.023Z,6.80
2019-05-29T18:15:00.724Z,5.03
2019-05-29T18:17:31.217Z,5.60
2019-05-29T18:20:01.745Z,7.42
2019-05-29T18:22:32.194Z,5.45
2019-05-29T18:25:02.769Z,6.53
2019-05-29T18:27:33.437Z,7.37
2019-05-29T18:30:04.035Z,4.60
2019-05-29T18:32:34.267Z,7.00
2019-05-29T18:35:06.318Z,6.17
2019-05-29T18:37:37.236Z,4.33
2019-05-29T18:40:12.497Z,4.40
2019-05-29T18:42:42.110Z,7.37
2019-05-29T18:45:20.761Z,7.03
2019-05-29T18:47:47.141Z,7.95
2019-05-29T18:50:21.370Z,5.03
2019-05-29T18:52:51.947Z,5.65
2019-05-29T18:55:22.794Z,6.15
2019-05-29T18:57:53.183Z,5.03
2019-05-29T19:00:25.340Z,6.55
2019-05-29T19:02:55.972Z,4.50
2019-05-29T19:05:26.147Z,6.83
2019-05-29T19:07:56.656Z,7.45
2019-05-29T19:10:27.715Z,4.30
2019-05-29T19:12:58.310Z,4.08
2019-05-29T19:15:30.074Z,5.00
2019-05-29T19:18:00.622Z,6.75
2019-05-29T19:20:32.539Z,6.50
2019-05-29T19:23:02.871Z,3.50
2019-05-29T19:25:33.369Z,3.92
2019-05-29T19:28:04.242Z,4.15
2019-05-29T19:30:34.852Z,4.25
2019-05-29T19:33:05.073Z,5.35
2019-05-29T19:35:35.428Z,4.92
2019-05-29T19:38:05.870Z,4.00
2019-05-29T19:40:36.130Z,4.92
2019-05-29T19:43:06.264Z,6.00
2019-05-29T19:45:36.400Z,6.03
2019-05-29T19:48:06.999Z,6.60
2019-05-29T19:50:37.251Z,4.05
2019-05-29T19:53:07.245Z,4.87
2019-05-29T19:55:38.382Z,4.80
2019-05-29T19:58:08.792Z,3.60
2019-05-29T20:00:39.403Z,4.15
2019-05-29T20:03:09.337Z,3.80
2019-05-29T20:05:38.976Z,4.40
2019-05-29T20:08:09.133Z,4.37
2019-05-29T20:10:38.997Z,3.50
2019-05-29T20:13:08.733Z,4.62
2019-05-29T20:15:38.735Z,4.50
2019-05-29T20:18:08.443Z,4.65
2019-05-29T20:20:38.747Z,3.90
2019-05-29T20:23:08.580Z,4.00
2019-05-29T20:25:39.054Z,4.15
2019-05-29T20:28:08.933Z,4.22
2019-05-29T20:30:38.823Z,4.62
2019-05-29T20:33:08.632Z,3.70
2019-05-29T20:35:39.146Z,5.28
2019-05-29T20:38:09.106Z,8.58
2019-05-29T20:40:39.452Z,4.12
2019-05-29T20:43:09.357Z,5.20
2019-05-29T20:45:39.727Z,6.12
2019-05-29T20:48:09.793Z,4.45
2019-05-29T20:50:39.661Z,3.85
2019-05-29T20:53:09.666Z,4.33
2019-05-29T20:55:39.865Z,5.33
2019-05-29T20:58:23.517Z,4.45
2019-05-29T21:00:42.337Z,6.03
2019-05-29T21:03:12.326Z,6.30
2019-05-29T21:05:42.875Z,5.95
2019-05-29T21:08:12.948Z,4.45
2019-05-29T21:10:43.599Z,5.62
2019-05-29T21:13:13.837Z,4.60
2019-05-29T21:15:43.837Z,5.50
2019-05-29T21:18:13.598Z,5.92
2019-05-29T21:20:44.621Z,6.50
2019-05-29T21:23:14.806Z,4.85
2019-05-29T21:25:44.954Z,6.08
2019-05-29T21:28:14.758Z,6.80
2019-05-29T21:30:45.591Z,6.25
2019-05-29T21:33:15.626Z,8.58
2019-05-29T21:35:46.362Z,6.00
2019-05-29T21:38:16.361Z,5.70
2019-05-29T21:40:46.723Z,8.43
2019-05-29T21:43:16.759Z,9.53
2019-05-29T21:45:47.275Z,6.25
2019-05-29T21:48:17.148Z,5.60
2019-05-29T21:50:47.445Z,10.15
2019-05-29T21:53:17.259Z,7.28
2019-05-29T21:55:47.831Z,7.60
2019-05-29T21:58:17.829Z,7.53
2019-05-29T22:00:50.458Z,6.72
2019-05-29T22:03:20.581Z,5.67
2019-05-29T22:05:50.869Z,5.67
2019-05-29T22:08:20.679Z,6.92
2019-05-29T22:10:51.434Z,7.40
2019-05-29T22:13:21.375Z,7.17
2019-05-29T22:15:51.032Z,5.03
2019-05-29T22:18:21.004Z,5.90
2019-05-29T22:20:51.138Z,8.08
2019-05-29T22:23:21.373Z,5.45
2019-05-29T22:25:51.339Z,6.75
2019-05-29T22:28:21.320Z,6.40
2019-05-29T22:30:51.362Z,5.62
2019-05-29T22:33:21.387Z,5.30
2019-05-29T22:35:52.675Z,6.47
2019-05-29T22:38:22.830Z,6.50
2019-05-29T22:40:53.788Z,6.85
2019-05-29T22:43:23.889Z,8.00
2019-05-29T22:45:53.821Z,6.17
2019-05-29T22:48:23.587Z,5.60
2019-05-29T22:50:53.923Z,6.35
2019-05-29T22:53:23.932Z,6.80
2019-05-29T22:55:53.869Z,5.00
2019-05-29T22:58:23.518Z,7.22
2019-05-29T23:00:53.950Z,6.40
2019-05-29T23:03:23.895Z,6.03
2019-05-29T23:05:54.276Z,6.00
2019-05-29T23:08:24.338Z,5.67
2019-05-29T23:10:54.558Z,8.88
2019-05-29T23:13:24.583Z,7.30
2019-05-29T23:15:54.562Z,7.05
2019-05-29T23:18:24.579Z,7.25
2019-05-29T23:20:54.549Z,5.37
2019-05-29T23:23:24.569Z,7.20
2019-05-29T23:25:54.564Z,5.50
2019-05-29T23:28:24.665Z,6.12
2019-05-29T23:30:54.653Z,7.05
2019-05-29T23:33:24.630Z,5.45
2019-05-29T23:35:54.841Z,6.35
2019-05-29T23:38:24.666Z,7.67
2019-05-29T23:40:55.252Z,7.58
2019-05-29T23:43:25.417Z,8.20
2019-05-29T23:45:55.383Z,8.05
2019-05-29T23:48:25.360Z,8.40
2019-05-29T23:50:55.584Z,9.93
2019-05-29T23:53:25.452Z,8.35
2019-05-29T23:55:55.752Z,9.23
2019-05-29T23:58:25.595Z,6.97
